sensor_id;sensor_type;location;lat;lon;timestamp;pressure;altitude;pressure_sealevel;temperature;humidity
13027;BME280;6580;42.680;23.324;2023-04-01T00:01:29;94391.28;;;13.02;73.48
13027;BME280;6580;42.680;23.324;2023-04-01T00:04:15;94387.31;;;12.98;74.00
13027;BME280;6580;42.680;23.324;2023-04-01T00:07:03;94380.78;;;13.00;73.97
13027;BME280;6580;42.680;23.324;2023-04-01T00:09:49;94391.41;;;12.94;73.57
13027;BME280;6580;42.680;23.324;2023-04-01T00:12:34;94385.31;;;12.85;73.64
13027;BME280;6580;42.680;23.324;2023-04-01T00:15:20;94393.50;;;12.77;74.82
13027;BME280;6580;42.680;23.324;2023-04-01T00:18:05;94397.75;;;12.51;76.07
13027;BME280;6580;42.680;23.324;2023-04-01T00:20:51;94397.53;;;12.52;76.48
13027;BME280;6580;42.680;23.324;2023-04-01T00:23:39;94395.94;;;12.58;75.19
13027;BME280;6580;42.680;23.324;2023-04-01T00:26:24;94394.88;;;12.52;75.50
13027;BME280;6580;42.680;23.324;2023-04-01T00:29:10;94405.78;;;12.36;76.42
13027;BME280;6580;42.680;23.324;2023-04-01T00:31:56;94390.72;;;12.29;77.25
13027;BME280;6580;42.680;23.324;2023-04-01T00:34:41;94392.13;;;12.11;78.42
13027;BME280;6580;42.680;23.324;2023-04-01T00:37:28;94389.66;;;12.09;79.08
13027;BME280;6580;42.680;23.324;2023-04-01T00:40:24;94386.59;;;12.26;86.15
13027;BME280;6580;42.680;23.324;2023-04-01T00:43:12;94387.84;;;12.30;88.07
13027;BME280;6580;42.680;23.324;2023-04-01T00:45:57;94364.69;;;12.16;91.29
13027;BME280;6580;42.680;23.324;2023-04-01T00:48:45;94367.28;;;12.10;90.47
13027;BME280;6580;42.680;23.324;2023-04-01T00:51:32;94361.31;;;12.08;88.58
13027;BME280;6580;42.680;23.324;2023-04-01T00:54:21;94363.41;;;11.92;93.95
13027;BME280;6580;42.680;23.324;2023-04-01T00:57:13;94354.91;;;11.88;95.43
13027;BME280;6580;42.680;23.324;2023-04-01T01:00:05;94344.25;;;11.88;93.49
13027;BME280;6580;42.680;23.324;2023-04-01T01:02:53;94350.16;;;11.69;96.46
13027;BME280;6580;42.680;23.324;2023-04-01T01:05:55;94341.19;;;12.06;96.72
13027;BME280;6580;42.680;23.324;2023-04-01T01:08:57;94325.84;;;11.93;92.17
13027;BME280;6580;42.680;23.324;2023-04-01T01:11:50;94338.31;;;11.57;93.13
13027;BME280;6580;42.680;23.324;2023-04-01T01:14:49;94322.84;;;11.38;97.21
13027;BME280;6580;42.680;23.324;2023-04-01T01:17:44;94325.22;;;11.48;96.77
13027;BME280;6580;42.680;23.324;2023-04-01T01:24:16;94311.00;;;11.26;97.19
13027;BME280;6580;42.680;23.324;2023-04-01T01:27:09;94313.03;;;11.53;93.77
13027;BME280;6580;42.680;23.324;2023-04-01T01:30:16;94308.03;;;11.79;93.44
13027;BME280;6580;42.680;23.324;2023-04-01T01:33:20;94299.88;;;11.52;89.64
13027;BME280;6580;42.680;23.324;2023-04-01T01:36:12;94297.59;;;11.63;90.43
13027;BME280;6580;42.680;23.324;2023-04-01T01:38:58;94298.09;;;11.73;90.80
13027;BME280;6580;42.680;23.324;2023-04-01T01:41:46;94290.31;;;11.57;89.85
13027;BME280;6580;42.680;23.324;2023-04-01T01:44:34;94297.38;;;11.50;88.65
13027;BME280;6580;42.680;23.324;2023-04-01T01:47:22;94293.72;;;11.37;89.89
13027;BME280;6580;42.680;23.324;2023-04-01T01:50:09;94289.47;;;11.57;87.67
13027;BME280;6580;42.680;23.324;2023-04-01T01:53:06;94289.41;;;11.36;86.40
13027;BME280;6580;42.680;23.324;2023-04-01T01:55:52;94287.00;;;11.55;86.13
13027;BME280;6580;42.680;23.324;2023-04-01T01:58:40;94298.03;;;11.67;83.34
13027;BME280;6580;42.680;23.324;2023-04-01T02:01:29;94282.22;;;11.86;82.62
13027;BME280;6580;42.680;23.324;2023-04-01T02:04:17;94275.75;;;12.10;81.56
13027;BME280;6580;42.680;23.324;2023-04-01T02:07:07;94269.25;;;12.18;80.27
13027;BME280;6580;42.680;23.324;2023-04-01T02:09:56;94272.41;;;12.28;81.97
13027;BME280;6580;42.680;23.324;2023-04-01T02:12:44;94254.81;;;12.34;80.17
13027;BME280;6580;42.680;23.324;2023-04-01T02:15:33;94275.44;;;12.19;80.27
13027;BME280;6580;42.680;23.324;2023-04-01T02:18:22;94269.88;;;12.00;86.05
13027;BME280;6580;42.680;23.324;2023-04-01T02:21:10;94253.22;;;12.18;81.32
13027;BME280;6580;42.680;23.324;2023-04-01T02:23:58;94244.63;;;12.23;81.07
13027;BME280;6580;42.680;23.324;2023-04-01T02:26:46;94261.25;;;12.18;82.02
13027;BME280;6580;42.680;23.324;2023-04-01T02:29:32;94261.81;;;12.14;82.57
13027;BME280;6580;42.680;23.324;2023-04-01T02:32:19;94261.81;;;12.14;83.41
13027;BME280;6580;42.680;23.324;2023-04-01T02:35:06;94271.31;;;12.02;83.92
13027;BME280;6580;42.680;23.324;2023-04-01T02:37:53;94262.19;;;12.11;85.62
13027;BME280;6580;42.680;23.324;2023-04-01T02:40:45;94263.22;;;12.10;85.16
13027;BME280;6580;42.680;23.324;2023-04-01T02:43:32;94277.19;;;12.12;84.75
13027;BME280;6580;42.680;23.324;2023-04-01T02:46:19;94276.75;;;12.09;86.65
13027;BME280;6580;42.680;23.324;2023-04-01T02:49:06;94271.72;;;12.41;83.74
13027;BME280;6580;42.680;23.324;2023-04-01T02:51:52;94274.00;;;12.23;83.28
13027;BME280;6580;42.680;23.324;2023-04-01T02:54:38;94272.63;;;12.27;84.30
13027;BME280;6580;42.680;23.324;2023-04-01T02:57:23;94289.16;;;12.37;84.38
13027;BME280;6580;42.680;23.324;2023-04-01T03:00:12;94294.50;;;12.16;85.42
13027;BME280;6580;42.680;23.324;2023-04-01T03:02:58;94286.53;;;12.22;84.99
13027;BME280;6580;42.680;23.324;2023-04-01T03:05:43;94301.00;;;12.13;85.06
13027;BME280;6580;42.680;23.324;2023-04-01T03:08:29;94301.44;;;12.38;83.31
13027;BME280;6580;42.680;23.324;2023-04-01T03:11:14;94309.72;;;12.43;84.56
13027;BME280;6580;42.680;23.324;2023-04-01T03:14:00;94304.66;;;12.48;84.28
13027;BME280;6580;42.680;23.324;2023-04-01T03:16:47;94301.59;;;12.30;86.59
13027;BME280;6580;42.680;23.324;2023-04-01T03:19:33;94296.91;;;12.32;83.14
13027;BME280;6580;42.680;23.324;2023-04-01T03:22:19;94288.63;;;12.27;83.75
13027;BME280;6580;42.680;23.324;2023-04-01T03:25:06;94288.50;;;12.35;82.80
13027;BME280;6580;42.680;23.324;2023-04-01T03:27:52;94323.78;;;12.30;84.65
13027;BME280;6580;42.680;23.324;2023-04-01T03:30:37;94310.00;;;12.48;84.00
13027;BME280;6580;42.680;23.324;2023-04-01T03:33:25;94308.84;;;12.36;86.63
13027;BME280;6580;42.680;23.324;2023-04-01T03:36:11;94308.72;;;12.23;85.71
13027;BME280;6580;42.680;23.324;2023-04-01T03:38:58;94317.50;;;12.17;90.42
13027;BME280;6580;42.680;23.324;2023-04-01T03:41:43;94309.81;;;11.93;90.29
13027;BME280;6580;42.680;23.324;2023-04-01T03:44:31;94287.88;;;12.12;94.38
13027;BME280;6580;42.680;23.324;2023-04-01T03:47:16;94260.28;;;12.05;97.71
13027;BME280;6580;42.680;23.324;2023-04-01T03:50:04;94251.84;;;12.22;92.66
13027;BME280;6580;42.680;23.324;2023-04-01T03:52:50;94223.22;;;12.16;95.25
13027;BME280;6580;42.680;23.324;2023-04-01T03:55:36;94227.28;;;12.13;91.97
13027;BME280;6580;42.680;23.324;2023-04-01T03:58:21;94213.13;;;12.12;92.18
13027;BME280;6580;42.680;23.324;2023-04-01T04:01:14;94207.03;;;12.18;90.41
13027;BME280;6580;42.680;23.324;2023-04-01T04:04:00;94199.53;;;12.28;92.74
13027;BME280;6580;42.680;23.324;2023-04-01T04:06:47;94194.19;;;12.07;89.33
13027;BME280;6580;42.680;23.324;2023-04-01T04:09:33;94197.38;;;12.17;89.96
13027;BME280;6580;42.680;23.324;2023-04-01T04:12:18;94170.06;;;12.15;90.11
13027;BME280;6580;42.680;23.324;2023-04-01T04:15:06;94179.47;;;12.11;86.93
13027;BME280;6580;42.680;23.324;2023-04-01T04:17:51;94166.44;;;12.02;86.56
13027;BME280;6580;42.680;23.324;2023-04-01T04:20:43;94167.66;;;11.99;86.72
13027;BME280;6580;42.680;23.324;2023-04-01T04:23:31;94187.16;;;11.79;85.26
13027;BME280;6580;42.680;23.324;2023-04-01T04:26:17;94164.03;;;11.86;83.12
13027;BME280;6580;42.680;23.324;2023-04-01T04:29:03;94157.22;;;11.83;81.17
13027;BME280;6580;42.680;23.324;2023-04-01T04:31:53;94153.00;;;11.89;81.77
13027;BME280;6580;42.680;23.324;2023-04-01T04:34:38;94153.91;;;12.02;80.61
13027;BME280;6580;42.680;23.324;2023-04-01T04:37:24;94149.84;;;12.06;80.92
13027;BME280;6580;42.680;23.324;2023-04-01T04:40:11;94139.75;;;12.02;80.90
13027;BME280;6580;42.680;23.324;2023-04-01T04:42:57;94142.81;;;12.26;80.71
13027;BME280;6580;42.680;23.324;2023-04-01T04:45:44;94144.13;;;12.09;81.31
13027;BME280;6580;42.680;23.324;2023-04-01T04:48:29;94142.53;;;12.14;80.39
13027;BME280;6580;42.680;23.324;2023-04-01T04:51:15;94130.34;;;12.33;79.01
13027;BME280;6580;42.680;23.324;2023-04-01T04:54:01;94125.44;;;12.36;77.35
13027;BME280;6580;42.680;23.324;2023-04-01T04:56:48;94105.16;;;11.87;78.06
13027;BME280;6580;42.680;23.324;2023-04-01T04:59:35;94120.97;;;11.89;78.66
13027;BME280;6580;42.680;23.324;2023-04-01T05:02:22;94143.66;;;11.99;79.67
13027;BME280;6580;42.680;23.324;2023-04-01T05:05:08;94129.28;;;12.00;80.48
13027;BME280;6580;42.680;23.324;2023-04-01T05:07:54;94112.22;;;12.01;77.86
13027;BME280;6580;42.680;23.324;2023-04-01T05:10:40;94114.31;;;11.99;78.23
13027;BME280;6580;42.680;23.324;2023-04-01T05:13:27;94102.38;;;11.74;80.17
13027;BME280;6580;42.680;23.324;2023-04-01T05:16:14;94115.72;;;11.74;80.42
13027;BME280;6580;42.680;23.324;2023-04-01T05:19:00;94100.47;;;11.68;80.25
13027;BME280;6580;42.680;23.324;2023-04-01T05:21:45;94073.78;;;11.89;79.13
13027;BME280;6580;42.680;23.324;2023-04-01T05:24:31;94078.94;;;11.91;79.15
13027;BME280;6580;42.680;23.324;2023-04-01T05:27:18;94080.81;;;11.97;79.34
13027;BME280;6580;42.680;23.324;2023-04-01T05:30:07;94080.91;;;12.10;80.02
13027;BME280;6580;42.680;23.324;2023-04-01T05:32:52;94076.75;;;12.75;75.42
13027;BME280;6580;42.680;23.324;2023-04-01T05:35:38;94097.44;;;13.66;71.68
13027;BME280;6580;42.680;23.324;2023-04-01T05:38:25;94078.13;;;14.35;65.60
13027;BME280;6580;42.680;23.324;2023-04-01T05:41:13;94079.88;;;14.87;61.21
13027;BME280;6580;42.680;23.324;2023-04-01T05:44:01;94072.66;;;15.99;57.15
13027;BME280;6580;42.680;23.324;2023-04-01T05:46:48;94066.31;;;17.03;53.11
13027;BME280;6580;42.680;23.324;2023-04-01T05:49:33;94059.50;;;18.06;49.53
13027;BME280;6580;42.680;23.324;2023-04-01T05:52:19;94060.31;;;18.36;46.67
13027;BME280;6580;42.680;23.324;2023-04-01T05:55:05;94056.28;;;18.27;45.13
13027;BME280;6580;42.680;23.324;2023-04-01T05:57:50;94063.75;;;17.73;46.33
13027;BME280;6580;42.680;23.324;2023-04-01T06:00:36;94033.16;;;19.23;42.39
13027;BME280;6580;42.680;23.324;2023-04-01T06:03:23;94044.78;;;19.62;41.90
13027;BME280;6580;42.680;23.324;2023-04-01T06:06:13;94040.31;;;19.84;40.43
13027;BME280;6580;42.680;23.324;2023-04-01T06:09:07;94042.75;;;19.97;40.01
13027;BME280;6580;42.680;23.324;2023-04-01T06:15:25;94033.34;;;20.16;39.48
13027;BME280;6580;42.680;23.324;2023-04-01T06:21:56;94034.94;;;19.17;40.63
13027;BME280;6580;42.680;23.324;2023-04-01T06:25:04;94043.31;;;18.58;41.43
13027;BME280;6580;42.680;23.324;2023-04-01T06:31:46;94053.78;;;17.44;43.37
13027;BME280;6580;42.680;23.324;2023-04-01T06:34:52;94035.38;;;17.70;43.49
13027;BME280;6580;42.680;23.324;2023-04-01T06:37:55;94027.50;;;17.57;44.02
13027;BME280;6580;42.680;23.324;2023-04-01T06:41:01;94025.56;;;17.76;43.98
13027;BME280;6580;42.680;23.324;2023-04-01T06:43:58;94026.72;;;17.68;44.64
13027;BME280;6580;42.680;23.324;2023-04-01T06:46:45;94038.38;;;16.01;48.65
13027;BME280;6580;42.680;23.324;2023-04-01T06:49:52;94027.09;;;15.62;51.09
13027;BME280;6580;42.680;23.324;2023-04-01T06:52:48;94018.66;;;15.83;51.96
13027;BME280;6580;42.680;23.324;2023-04-01T06:55:40;94009.50;;;15.90;52.07
13027;BME280;6580;42.680;23.324;2023-04-01T06:58:30;94012.75;;;15.74;52.75
13027;BME280;6580;42.680;23.324;2023-04-01T07:01:23;93995.66;;;15.69;53.64
13027;BME280;6580;42.680;23.324;2023-04-01T07:04:13;94004.97;;;15.35;54.85
13027;BME280;6580;42.680;23.324;2023-04-01T07:07:05;94007.13;;;15.51;55.13
13027;BME280;6580;42.680;23.324;2023-04-01T07:09:57;94014.94;;;15.84;54.79
13027;BME280;6580;42.680;23.324;2023-04-01T07:12:48;93988.94;;;16.27;53.27
13027;BME280;6580;42.680;23.324;2023-04-01T07:15:39;94004.59;;;16.36;53.12
13027;BME280;6580;42.680;23.324;2023-04-01T07:18:31;93987.88;;;15.85;54.67
13027;BME280;6580;42.680;23.324;2023-04-01T07:21:30;93997.47;;;15.99;54.75
13027;BME280;6580;42.680;23.324;2023-04-01T07:24:23;93999.50;;;16.46;54.23
13027;BME280;6580;42.680;23.324;2023-04-01T07:27:12;93996.75;;;16.10;54.72
13027;BME280;6580;42.680;23.324;2023-04-01T07:29:57;94006.09;;;15.77;56.14
13027;BME280;6580;42.680;23.324;2023-04-01T07:32:47;94009.69;;;15.71;57.26
13027;BME280;6580;42.680;23.324;2023-04-01T07:35:37;94014.69;;;15.61;58.38
13027;BME280;6580;42.680;23.324;2023-04-01T07:38:30;94023.41;;;15.56;59.78
13027;BME280;6580;42.680;23.324;2023-04-01T07:41:24;93999.16;;;15.94;57.92
13027;BME280;6580;42.680;23.324;2023-04-01T07:44:16;93994.94;;;16.04;57.85
13027;BME280;6580;42.680;23.324;2023-04-01T07:47:12;93995.16;;;16.03;57.75
13027;BME280;6580;42.680;23.324;2023-04-01T07:50:07;93993.16;;;15.98;58.98
13027;BME280;6580;42.680;23.324;2023-04-01T07:53:05;93978.03;;;16.22;57.68
13027;BME280;6580;42.680;23.324;2023-04-01T07:55:59;93980.88;;;16.27;57.62
13027;BME280;6580;42.680;23.324;2023-04-01T07:58:54;93987.66;;;16.29;57.21
13027;BME280;6580;42.680;23.324;2023-04-01T08:01:46;93986.22;;;16.09;57.38
13027;BME280;6580;42.680;23.324;2023-04-01T08:04:42;93972.91;;;16.38;57.06
13027;BME280;6580;42.680;23.324;2023-04-01T08:07:36;93985.53;;;16.37;56.92
13027;BME280;6580;42.680;23.324;2023-04-01T08:10:30;93977.47;;;16.37;57.17
13027;BME280;6580;42.680;23.324;2023-04-01T08:13:27;93949.22;;;16.53;55.87
13027;BME280;6580;42.680;23.324;2023-04-01T08:16:20;93953.16;;;16.98;54.47
13027;BME280;6580;42.680;23.324;2023-04-01T08:19:16;93943.56;;;16.72;54.66
13027;BME280;6580;42.680;23.324;2023-04-01T08:22:08;93939.53;;;17.11;53.30
13027;BME280;6580;42.680;23.324;2023-04-01T08:24:59;93934.88;;;17.18;52.92
13027;BME280;6580;42.680;23.324;2023-04-01T08:27:49;93937.19;;;17.32;51.77
13027;BME280;6580;42.680;23.324;2023-04-01T08:30:40;93922.38;;;17.23;52.06
13027;BME280;6580;42.680;23.324;2023-04-01T08:33:30;93928.50;;;17.59;51.69
13027;BME280;6580;42.680;23.324;2023-04-01T08:36:18;93897.16;;;17.88;50.00
13027;BME280;6580;42.680;23.324;2023-04-01T08:39:07;93873.88;;;18.55;49.07
13027;BME280;6580;42.680;23.324;2023-04-01T08:42:16;93871.50;;;18.98;46.44
13027;BME280;6580;42.680;23.324;2023-04-01T08:48:36;93852.66;;;22.87;38.87
13027;BME280;6580;42.680;23.324;2023-04-01T08:52:01;93842.34;;;22.89;37.91
13027;BME280;6580;42.680;23.324;2023-04-01T08:55:20;93845.84;;;23.80;35.22
13027;BME280;6580;42.680;23.324;2023-04-01T09:01:25;93845.22;;;25.36;32.29
13027;BME280;6580;42.680;23.324;2023-04-01T09:04:25;93849.91;;;23.73;34.08
13027;BME280;6580;42.680;23.324;2023-04-01T09:07:27;93851.53;;;22.83;33.95
13027;BME280;6580;42.680;23.324;2023-04-01T09:10:44;93860.88;;;21.78;34.13
13027;BME280;6580;42.680;23.324;2023-04-01T09:17:14;93845.13;;;22.11;34.74
13027;BME280;6580;42.680;23.324;2023-04-01T09:20:19;93844.91;;;21.50;35.35
13027;BME280;6580;42.680;23.324;2023-04-01T09:23:20;93843.22;;;21.18;35.46
13027;BME280;6580;42.680;23.324;2023-04-01T09:26:22;93834.56;;;20.30;37.20
13027;BME280;6580;42.680;23.324;2023-04-01T09:29:23;93836.97;;;20.10;37.92
13027;BME280;6580;42.680;23.324;2023-04-01T09:32:32;93822.81;;;20.03;38.50
13027;BME280;6580;42.680;23.324;2023-04-01T09:35:33;93817.69;;;20.02;37.88
13027;BME280;6580;42.680;23.324;2023-04-01T09:38:29;93810.53;;;20.12;38.00
13027;BME280;6580;42.680;23.324;2023-04-01T09:41:22;93816.31;;;19.99;37.83
13027;BME280;6580;42.680;23.324;2023-04-01T09:44:14;93813.22;;;20.12;37.40
13027;BME280;6580;42.680;23.324;2023-04-01T09:47:15;93807.13;;;20.00;36.84
13027;BME280;6580;42.680;23.324;2023-04-01T09:53:46;93782.69;;;21.34;35.33
13027;BME280;6580;42.680;23.324;2023-04-01T09:57:02;93781.22;;;20.90;36.07
13027;BME280;6580;42.680;23.324;2023-04-01T10:00:27;93763.38;;;21.88;35.16
13027;BME280;6580;42.680;23.324;2023-04-01T10:03:58;93768.53;;;21.22;35.50
13027;BME280;6580;42.680;23.324;2023-04-01T10:14:15;93763.63;;;21.19;35.50
13027;BME280;6580;42.680;23.324;2023-04-01T10:17:33;93758.81;;;20.73;34.85
13027;BME280;6580;42.680;23.324;2023-04-01T10:27:58;93731.38;;;20.38;38.03
13027;BME280;6580;42.680;23.324;2023-04-01T10:31:12;93743.22;;;20.58;38.11
13027;BME280;6580;42.680;23.324;2023-04-01T10:34:43;93758.09;;;19.97;39.30
13027;BME280;6580;42.680;23.324;2023-04-01T10:41:37;93736.38;;;19.70;39.43
13027;BME280;6580;42.680;23.324;2023-04-01T10:48:09;93736.78;;;19.25;40.64
13027;BME280;6580;42.680;23.324;2023-04-01T10:51:12;93711.84;;;19.18;40.84
13027;BME280;6580;42.680;23.324;2023-04-01T10:54:29;93723.03;;;19.10;41.39
13027;BME280;6580;42.680;23.324;2023-04-01T11:08:10;93704.13;;;19.42;41.78
13027;BME280;6580;42.680;23.324;2023-04-01T11:14:35;93698.16;;;19.41;41.18
13027;BME280;6580;42.680;23.324;2023-04-01T11:24:47;93692.50;;;18.93;42.56
13027;BME280;6580;42.680;23.324;2023-04-01T11:27:53;93731.44;;;18.80;42.75
13027;BME280;6580;42.680;23.324;2023-04-01T11:30:49;93744.66;;;18.38;46.90
13027;BME280;6580;42.680;23.324;2023-04-01T11:33:43;93764.47;;;18.32;44.13
13027;BME280;6580;42.680;23.324;2023-04-01T11:36:40;93773.25;;;17.88;55.59
13027;BME280;6580;42.680;23.324;2023-04-01T11:39:36;93776.09;;;17.58;54.19
13027;BME280;6580;42.680;23.324;2023-04-01T11:42:34;93825.13;;;17.37;54.79
13027;BME280;6580;42.680;23.324;2023-04-01T11:45:34;93856.75;;;16.83;63.69
13027;BME280;6580;42.680;23.324;2023-04-01T11:48:31;93888.34;;;16.58;72.23
13027;BME280;6580;42.680;23.324;2023-04-01T11:51:46;93935.53;;;15.94;86.70
13027;BME280;6580;42.680;23.324;2023-04-01T11:54:49;93959.66;;;15.15;100.00
13027;BME280;6580;42.680;23.324;2023-04-01T11:57:51;93976.06;;;14.56;100.00
13027;BME280;6580;42.680;23.324;2023-04-01T12:01:10;93981.91;;;14.34;100.00
13027;BME280;6580;42.680;23.324;2023-04-01T12:07:52;93983.59;;;14.09;100.00
13027;BME280;6580;42.680;23.324;2023-04-01T12:10:46;93972.06;;;14.02;100.00
13027;BME280;6580;42.680;23.324;2023-04-01T12:13:40;93975.59;;;13.83;100.00
13027;BME280;6580;42.680;23.324;2023-04-01T12:16:38;93965.09;;;14.14;100.00
13027;BME280;6580;42.680;23.324;2023-04-01T12:19:35;93958.47;;;15.11;100.00
13027;BME280;6580;42.680;23.324;2023-04-01T12:22:43;93949.28;;;16.22;100.00
13027;BME280;6580;42.680;23.324;2023-04-01T12:25:56;93942.38;;;17.16;100.00
13027;BME280;6580;42.680;23.324;2023-04-01T12:28:59;93960.47;;;16.79;100.00
13027;BME280;6580;42.680;23.324;2023-04-01T12:31:53;93966.19;;;16.29;100.00
13027;BME280;6580;42.680;23.324;2023-04-01T12:35:00;93963.28;;;15.64;100.00
13027;BME280;6580;42.680;23.324;2023-04-01T12:38:01;93972.44;;;14.82;100.00
13027;BME280;6580;42.680;23.324;2023-04-01T12:41:26;93977.84;;;13.99;100.00
13027;BME280;6580;42.680;23.324;2023-04-01T12:44:36;93971.69;;;13.53;100.00
13027;BME280;6580;42.680;23.324;2023-04-01T12:48:06;93974.56;;;13.19;100.00
13027;BME280;6580;42.680;23.324;2023-04-01T12:51:11;93980.13;;;13.31;100.00
13027;BME280;6580;42.680;23.324;2023-04-01T13:01:24;93956.88;;;13.25;100.00
13027;BME280;6580;42.680;23.324;2023-04-01T13:04:44;93943.53;;;13.44;100.00
13027;BME280;6580;42.680;23.324;2023-04-01T13:07:53;93926.44;;;13.07;100.00
13027;BME280;6580;42.680;23.324;2023-04-01T13:10:55;93948.22;;;13.29;100.00
13027;BME280;6580;42.680;23.324;2023-04-01T13:17:20;93889.44;;;14.25;100.00
13027;BME280;6580;42.680;23.324;2023-04-01T13:20:14;93886.47;;;14.46;100.00
13027;BME280;6580;42.680;23.324;2023-04-01T13:23:17;93901.03;;;14.94;100.00
13027;BME280;6580;42.680;23.324;2023-04-01T13:26:13;93880.50;;;15.12;100.00
13027;BME280;6580;42.680;23.324;2023-04-01T13:29:07;93884.41;;;15.40;100.00
13027;BME280;6580;42.680;23.324;2023-04-01T13:32:06;93876.03;;;15.55;100.00
13027;BME280;6580;42.680;23.324;2023-04-01T13:35:10;93856.88;;;15.51;100.00
13027;BME280;6580;42.680;23.324;2023-04-01T13:38:16;93848.41;;;15.72;100.00
13027;BME280;6580;42.680;23.324;2023-04-01T13:41:10;93848.31;;;15.61;100.00
13027;BME280;6580;42.680;23.324;2023-04-01T13:44:02;93826.44;;;15.39;100.00
13027;BME280;6580;42.680;23.324;2023-04-01T13:47:19;93817.97;;;15.42;100.00
13027;BME280;6580;42.680;23.324;2023-04-01T13:50:36;93821.06;;;15.39;100.00
13027;BME280;6580;42.680;23.324;2023-04-01T13:54:03;93819.63;;;15.61;100.00
13027;BME280;6580;42.680;23.324;2023-04-01T13:57:20;93823.63;;;15.70;100.00
13027;BME280;6580;42.680;23.324;2023-04-01T14:00:35;93807.84;;;15.80;100.00
13027;BME280;6580;42.680;23.324;2023-04-01T14:03:34;93805.91;;;15.87;100.00
13027;BME280;6580;42.680;23.324;2023-04-01T14:06:36;93803.09;;;15.82;93.47
13027;BME280;6580;42.680;23.324;2023-04-01T14:09:40;93794.72;;;15.90;98.78
13027;BME280;6580;42.680;23.324;2023-04-01T14:12:32;93795.00;;;15.46;100.00
13027;BME280;6580;42.680;23.324;2023-04-01T14:15:30;93802.16;;;15.52;100.00
13027;BME280;6580;42.680;23.324;2023-04-01T14:21:57;93787.59;;;15.18;100.00
13027;BME280;6580;42.680;23.324;2023-04-01T14:24:56;93763.34;;;15.37;86.78
13027;BME280;6580;42.680;23.324;2023-04-01T14:27:52;93778.59;;;15.90;92.19
13027;BME280;6580;42.680;23.324;2023-04-01T14:30:52;93752.38;;;15.74;81.05
13027;BME280;6580;42.680;23.324;2023-04-01T14:33:50;93746.06;;;16.16;76.60
13027;BME280;6580;42.680;23.324;2023-04-01T14:37:36;93728.75;;;15.65;89.39
13027;BME280;6580;42.680;23.324;2023-04-01T14:40:28;93755.50;;;15.53;89.36
13027;BME280;6580;42.680;23.324;2023-04-01T14:43:29;93762.06;;;15.15;92.91
13027;BME280;6580;42.680;23.324;2023-04-01T14:46:51;93759.81;;;15.36;92.71
13027;BME280;6580;42.680;23.324;2023-04-01T14:50:06;93762.81;;;15.46;90.65
13027;BME280;6580;42.680;23.324;2023-04-01T14:53:12;93767.13;;;15.47;93.28
13027;BME280;6580;42.680;23.324;2023-04-01T14:56:34;93759.22;;;15.52;92.12
13027;BME280;6580;42.680;23.324;2023-04-01T14:59:31;93756.84;;;15.27;95.52
13027;BME280;6580;42.680;23.324;2023-04-01T15:02:42;93758.41;;;15.34;92.59
13027;BME280;6580;42.680;23.324;2023-04-01T15:05:41;93769.50;;;15.13;89.69
13027;BME280;6580;42.680;23.324;2023-04-01T15:08:43;93775.84;;;15.43;93.50
13027;BME280;6580;42.680;23.324;2023-04-01T15:11:47;93780.69;;;15.52;91.66
13027;BME280;6580;42.680;23.324;2023-04-01T15:14:47;93781.22;;;15.19;93.72
13027;BME280;6580;42.680;23.324;2023-04-01T15:17:45;93779.09;;;15.27;92.62
13027;BME280;6580;42.680;23.324;2023-04-01T15:21:02;93775.53;;;15.09;95.24
13027;BME280;6580;42.680;23.324;2023-04-01T15:24:03;93779.34;;;14.95;94.76
13027;BME280;6580;42.680;23.324;2023-04-01T15:27:11;93795.22;;;14.72;95.00
13027;BME280;6580;42.680;23.324;2023-04-01T15:30:18;93789.75;;;14.60;95.65
13027;BME280;6580;42.680;23.324;2023-04-01T15:33:29;93784.69;;;14.46;99.64
13027;BME280;6580;42.680;23.324;2023-04-01T15:36:30;93783.00;;;14.76;96.02
13027;BME280;6580;42.680;23.324;2023-04-01T15:39:23;93796.69;;;14.68;95.32
13027;BME280;6580;42.680;23.324;2023-04-01T15:42:22;93789.22;;;14.76;94.12
13027;BME280;6580;42.680;23.324;2023-04-01T15:45:17;93794.47;;;14.89;92.93
13027;BME280;6580;42.680;23.324;2023-04-01T15:48:24;93829.22;;;14.71;96.49
13027;BME280;6580;42.680;23.324;2023-04-01T15:51:22;93965.00;;;14.33;91.97
13027;BME280;6580;42.680;23.324;2023-04-01T15:54:24;94003.75;;;13.21;93.96
13027;BME280;6580;42.680;23.324;2023-04-01T15:57:20;94025.31;;;12.60;97.62
13027;BME280;6580;42.680;23.324;2023-04-01T16:00:27;94051.88;;;12.27;100.00
13027;BME280;6580;42.680;23.324;2023-04-01T16:03:19;94055.69;;;11.85;100.00
13027;BME280;6580;42.680;23.324;2023-04-01T16:06:17;94044.88;;;11.23;100.00
13027;BME280;6580;42.680;23.324;2023-04-01T16:09:20;94064.66;;;11.14;100.00
13027;BME280;6580;42.680;23.324;2023-04-01T16:12:15;94084.31;;;11.13;100.00
13027;BME280;6580;42.680;23.324;2023-04-01T16:15:12;94092.56;;;10.83;100.00
13027;BME280;6580;42.680;23.324;2023-04-01T16:18:21;94084.88;;;10.74;100.00
13027;BME280;6580;42.680;23.324;2023-04-01T16:21:24;94101.69;;;10.60;100.00
13027;BME280;6580;42.680;23.324;2023-04-01T16:24:22;94092.81;;;10.53;100.00
13027;BME280;6580;42.680;23.324;2023-04-01T16:27:14;94107.38;;;10.71;100.00
13027;BME280;6580;42.680;23.324;2023-04-01T16:30:22;94118.69;;;10.59;100.00
13027;BME280;6580;42.680;23.324;2023-04-01T16:33:13;94085.41;;;10.34;100.00
13027;BME280;6580;42.680;23.324;2023-04-01T16:36:09;94114.00;;;10.61;100.00
13027;BME280;6580;42.680;23.324;2023-04-01T16:39:09;94111.25;;;10.69;100.00
13027;BME280;6580;42.680;23.324;2023-04-01T16:42:18;94128.50;;;10.73;100.00
13027;BME280;6580;42.680;23.324;2023-04-01T16:45:19;94125.56;;;10.68;100.00
13027;BME280;6580;42.680;23.324;2023-04-01T16:48:12;94128.78;;;10.63;100.00
13027;BME280;6580;42.680;23.324;2023-04-01T16:51:04;94129.53;;;10.57;100.00
13027;BME280;6580;42.680;23.324;2023-04-01T16:54:03;94132.91;;;10.51;100.00
13027;BME280;6580;42.680;23.324;2023-04-01T16:56:54;94127.78;;;10.35;100.00